Airfield :







YOU CAN JOIN US ON...

 
LOGIN :

Register | Disclaimer

   EN    FR    IT 

 









Legend :    VFR   Marginal VFR   IFR   Intensive IFR   Very Intensive IFR
Visi :
Ceiling :
>= 8 km
>= 3000ft
5 to 8 km
1000 to 3000 ft
1500m to 5 km
500 to 1000 ft
800 to 1500m
200 to 500 ft
< 800m
< 200 ft
Symbols :   Thunderstorms  Fog  Heavy snow  Heavy precipitations  Wind > 20 kt






- Airport Elevation : 244 ft
- IATA code : YQB


CYQB - Quebec - Jean Lesage Int.

CURRENT METAR :
  • 110600Z 28008KT 260V340 15SM FEW030 FEW250 M09/M16 A3008 RMK SC1CI1 SLP193

EXPIRED METARs :
  • 110500Z 28009G18KT 15SM FEW030 SCT240 M08/M15 A3005 RMK SC1CI2 SLP180
  • 110400Z 29007KT 260V330 15SM FEW032 FEW240 M07/M14 A3002 RMK SC1CI1 PRESRR SLP172

TAF TAF CYQB
Valid from the 11 at 06:00 until the 12 at 06:00 UTC


110538Z 1106/1206 28012KT P6SM FEW030 FEW240
BECMG 1108/1110 VRB03KT
BECMG 1116/1118 23005KT
FM112100 VRB03KT P6SM BKN050 BKN240
FM120000 24007KT 6SM -SN OVC025
TEMPO 1200/1206 11/2SM -SHSN RMK NXT FCST BY 111200Z
ATIS : ENG : +1 418-871-6893 FRA : +1 418-871-6895



MET'MAP, your aeronautical weather chart ! - Copyright ORBIFLY December 2007 - Disclaimer

ORBIFLY MET'MAP TEAM :

Programming & Development : Alexandra Zaïnal
Concept & original design : Baudouin d'Aumeries
Assistance for programming : Marc-Olivier Méhu
Technical & hardware support : Manuel Goepfert

Contact : metmap@orbifly.com




SOURCES & CREDITS :

   NOAA